sensor_id;sensor_type;location;lat;lon;timestamp;temperature;humidity
36752;DHT22;22718;49.494;7.036;2023-04-03T00:00:25;3.10;99.90
36752;DHT22;22718;49.494;7.036;2023-04-03T00:02:51;3.10;99.90
36752;DHT22;22718;49.494;7.036;2023-04-03T00:05:16;3.10;99.90
36752;DHT22;22718;49.494;7.036;2023-04-03T00:07:42;3.00;99.90
36752;DHT22;22718;49.494;7.036;2023-04-03T00:10:07;3.20;99.90
36752;DHT22;22718;49.494;7.036;2023-04-03T00:12:33;3.00;99.90
36752;DHT22;22718;49.494;7.036;2023-04-03T00:14:59;3.00;99.90
36752;DHT22;22718;49.494;7.036;2023-04-03T00:17:24;3.00;99.90
36752;DHT22;22718;49.494;7.036;2023-04-03T00:19:50;3.00;99.90
36752;DHT22;22718;49.494;7.036;2023-04-03T00:22:15;3.00;99.90
36752;DHT22;22718;49.494;7.036;2023-04-03T00:24:41;3.00;99.90
36752;DHT22;22718;49.494;7.036;2023-04-03T00:27:07;3.00;99.90
36752;DHT22;22718;49.494;7.036;2023-04-03T00:29:32;3.00;99.90
36752;DHT22;22718;49.494;7.036;2023-04-03T00:31:58;3.00;99.90
36752;DHT22;22718;49.494;7.036;2023-04-03T00:34:24;3.00;99.90
36752;DHT22;22718;49.494;7.036;2023-04-03T00:36:50;3.00;99.90
36752;DHT22;22718;49.494;7.036;2023-04-03T00:39:16;2.90;99.90
36752;DHT22;22718;49.494;7.036;2023-04-03T00:41:42;2.90;99.90
36752;DHT22;22718;49.494;7.036;2023-04-03T00:44:20;3.10;99.90
36752;DHT22;22718;49.494;7.036;2023-04-03T00:46:46;3.00;99.90
36752;DHT22;22718;49.494;7.036;2023-04-03T00:49:12;2.90;99.90
36752;DHT22;22718;49.494;7.036;2023-04-03T00:51:37;2.90;99.90
36752;DHT22;22718;49.494;7.036;2023-04-03T00:54:03;2.90;99.90
36752;DHT22;22718;49.494;7.036;2023-04-03T00:56:30;3.00;99.90
36752;DHT22;22718;49.494;7.036;2023-04-03T00:58:58;2.90;99.90
36752;DHT22;22718;49.494;7.036;2023-04-03T01:01:25;3.00;99.90
36752;DHT22;22718;49.494;7.036;2023-04-03T01:03:51;2.90;99.90
36752;DHT22;22718;49.494;7.036;2023-04-03T01:06:17;2.80;99.90
36752;DHT22;22718;49.494;7.036;2023-04-03T01:08:44;2.80;99.90
36752;DHT22;22718;49.494;7.036;2023-04-03T01:11:18;2.70;99.90
36752;DHT22;22718;49.494;7.036;2023-04-03T01:13:46;2.60;99.90
36752;DHT22;22718;49.494;7.036;2023-04-03T01:16:11;2.60;99.90
36752;DHT22;22718;49.494;7.036;2023-04-03T01:18:38;2.50;99.90
36752;DHT22;22718;49.494;7.036;2023-04-03T01:26:05;2.30;99.90
36752;DHT22;22718;49.494;7.036;2023-04-03T01:28:32;2.20;99.90
36752;DHT22;22718;49.494;7.036;2023-04-03T01:33:26;2.10;99.90
36752;DHT22;22718;49.494;7.036;2023-04-03T01:35:52;2.00;99.90
36752;DHT22;22718;49.494;7.036;2023-04-03T01:38:17;2.00;99.90
36752;DHT22;22718;49.494;7.036;2023-04-03T01:40:43;2.00;99.90
36752;DHT22;22718;49.494;7.036;2023-04-03T01:43:08;2.00;99.90
36752;DHT22;22718;49.494;7.036;2023-04-03T01:45:34;1.90;99.90
36752;DHT22;22718;49.494;7.036;2023-04-03T01:48:00;1.90;99.90
36752;DHT22;22718;49.494;7.036;2023-04-03T01:50:25;1.90;99.90
36752;DHT22;22718;49.494;7.036;2023-04-03T01:52:51;1.90;99.90
36752;DHT22;22718;49.494;7.036;2023-04-03T01:55:16;1.80;99.90
36752;DHT22;22718;49.494;7.036;2023-04-03T01:57:42;1.80;99.90
36752;DHT22;22718;49.494;7.036;2023-04-03T02:00:08;1.80;99.90
36752;DHT22;22718;49.494;7.036;2023-04-03T02:02:33;1.70;99.90
36752;DHT22;22718;49.494;7.036;2023-04-03T02:05:02;1.70;99.90
36752;DHT22;22718;49.494;7.036;2023-04-03T02:07:27;1.70;99.90
36752;DHT22;22718;49.494;7.036;2023-04-03T02:09:53;1.70;99.90
36752;DHT22;22718;49.494;7.036;2023-04-03T02:12:18;1.60;99.90
36752;DHT22;22718;49.494;7.036;2023-04-03T02:14:47;1.60;99.90
36752;DHT22;22718;49.494;7.036;2023-04-03T02:17:12;1.60;99.90
36752;DHT22;22718;49.494;7.036;2023-04-03T02:19:38;1.60;99.90
36752;DHT22;22718;49.494;7.036;2023-04-03T02:22:04;1.60;99.90
36752;DHT22;22718;49.494;7.036;2023-04-03T02:24:30;1.50;99.90
36752;DHT22;22718;49.494;7.036;2023-04-03T02:26:56;1.50;99.90
36752;DHT22;22718;49.494;7.036;2023-04-03T02:29:21;1.40;99.90
36752;DHT22;22718;49.494;7.036;2023-04-03T02:31:47;1.50;99.90
36752;DHT22;22718;49.494;7.036;2023-04-03T02:34:12;1.40;99.90
36752;DHT22;22718;49.494;7.036;2023-04-03T02:36:38;1.40;99.90
36752;DHT22;22718;49.494;7.036;2023-04-03T02:39:04;1.40;99.90
36752;DHT22;22718;49.494;7.036;2023-04-03T02:41:29;1.40;99.90
36752;DHT22;22718;49.494;7.036;2023-04-03T02:44:02;1.30;99.90
36752;DHT22;22718;49.494;7.036;2023-04-03T02:46:27;1.50;99.90
36752;DHT22;22718;49.494;7.036;2023-04-03T02:48:56;1.30;99.90
36752;DHT22;22718;49.494;7.036;2023-04-03T02:51:23;1.30;99.90
36752;DHT22;22718;49.494;7.036;2023-04-03T02:53:49;1.40;99.90
36752;DHT22;22718;49.494;7.036;2023-04-03T02:56:14;1.30;99.90
36752;DHT22;22718;49.494;7.036;2023-04-03T02:58:40;1.30;99.90
36752;DHT22;22718;49.494;7.036;2023-04-03T03:01:05;1.30;99.90
36752;DHT22;22718;49.494;7.036;2023-04-03T03:03:31;1.40;99.90
36752;DHT22;22718;49.494;7.036;2023-04-03T03:06:01;1.30;99.90
36752;DHT22;22718;49.494;7.036;2023-04-03T03:08:26;1.30;99.90
36752;DHT22;22718;49.494;7.036;2023-04-03T03:10:52;1.30;99.90
36752;DHT22;22718;49.494;7.036;2023-04-03T03:13:18;1.30;99.90
36752;DHT22;22718;49.494;7.036;2023-04-03T03:15:44;1.30;99.90
36752;DHT22;22718;49.494;7.036;2023-04-03T03:18:09;1.30;99.90
36752;DHT22;22718;49.494;7.036;2023-04-03T03:20:35;1.30;99.90
36752;DHT22;22718;49.494;7.036;2023-04-03T03:23:00;1.30;99.90
36752;DHT22;22718;49.494;7.036;2023-04-03T03:25:26;1.20;99.90
36752;DHT22;22718;49.494;7.036;2023-04-03T03:27:51;1.20;99.90
36752;DHT22;22718;49.494;7.036;2023-04-03T03:30:17;1.20;99.90
36752;DHT22;22718;49.494;7.036;2023-04-03T03:32:43;1.20;99.90
36752;DHT22;22718;49.494;7.036;2023-04-03T03:35:09;1.30;99.90
36752;DHT22;22718;49.494;7.036;2023-04-03T03:37:35;1.30;99.90
36752;DHT22;22718;49.494;7.036;2023-04-03T03:40:00;1.30;99.90
36752;DHT22;22718;49.494;7.036;2023-04-03T03:42:26;1.30;99.90
36752;DHT22;22718;49.494;7.036;2023-04-03T03:44:51;1.30;99.90
36752;DHT22;22718;49.494;7.036;2023-04-03T03:47:17;1.30;99.90
36752;DHT22;22718;49.494;7.036;2023-04-03T03:49:42;1.30;99.90
36752;DHT22;22718;49.494;7.036;2023-04-03T03:52:14;1.30;99.90
36752;DHT22;22718;49.494;7.036;2023-04-03T03:54:40;1.30;99.90
36752;DHT22;22718;49.494;7.036;2023-04-03T03:57:06;1.30;99.90
36752;DHT22;22718;49.494;7.036;2023-04-03T03:59:31;1.30;99.90
36752;DHT22;22718;49.494;7.036;2023-04-03T04:01:59;1.30;99.90
36752;DHT22;22718;49.494;7.036;2023-04-03T04:04:24;1.30;99.90
36752;DHT22;22718;49.494;7.036;2023-04-03T04:06:50;1.30;99.90
36752;DHT22;22718;49.494;7.036;2023-04-03T04:09:15;1.30;99.90
36752;DHT22;22718;49.494;7.036;2023-04-03T04:11:41;1.30;99.90
36752;DHT22;22718;49.494;7.036;2023-04-03T04:14:07;1.40;99.90
36752;DHT22;22718;49.494;7.036;2023-04-03T04:16:33;1.30;99.90
36752;DHT22;22718;49.494;7.036;2023-04-03T04:18:59;1.20;99.90
36752;DHT22;22718;49.494;7.036;2023-04-03T04:21:27;1.30;99.90
36752;DHT22;22718;49.494;7.036;2023-04-03T04:23:53;1.20;99.90
36752;DHT22;22718;49.494;7.036;2023-04-03T04:26:18;1.30;99.90
36752;DHT22;22718;49.494;7.036;2023-04-03T04:28:44;1.30;99.90
36752;DHT22;22718;49.494;7.036;2023-04-03T04:31:09;1.20;99.90
36752;DHT22;22718;49.494;7.036;2023-04-03T04:33:35;1.20;99.90
36752;DHT22;22718;49.494;7.036;2023-04-03T04:36:00;1.20;99.90
36752;DHT22;22718;49.494;7.036;2023-04-03T04:38:26;1.20;99.90
36752;DHT22;22718;49.494;7.036;2023-04-03T04:40:52;1.20;99.90
36752;DHT22;22718;49.494;7.036;2023-04-03T04:43:17;1.20;99.90
36752;DHT22;22718;49.494;7.036;2023-04-03T04:45:43;1.20;99.90
36752;DHT22;22718;49.494;7.036;2023-04-03T04:48:09;1.20;99.90
36752;DHT22;22718;49.494;7.036;2023-04-03T04:50:37;1.10;99.90
36752;DHT22;22718;49.494;7.036;2023-04-03T04:53:03;1.10;99.90
36752;DHT22;22718;49.494;7.036;2023-04-03T04:55:31;1.10;99.90
36752;DHT22;22718;49.494;7.036;2023-04-03T04:57:56;1.10;99.90
36752;DHT22;22718;49.494;7.036;2023-04-03T05:00:22;1.10;99.90
36752;DHT22;22718;49.494;7.036;2023-04-03T05:02:47;1.20;99.90
36752;DHT22;22718;49.494;7.036;2023-04-03T05:05:13;1.10;99.90
36752;DHT22;22718;49.494;7.036;2023-04-03T05:07:38;1.10;99.90
36752;DHT22;22718;49.494;7.036;2023-04-03T05:10:04;1.10;99.90
36752;DHT22;22718;49.494;7.036;2023-04-03T05:12:29;1.10;99.90
36752;DHT22;22718;49.494;7.036;2023-04-03T05:14:55;1.10;99.90
36752;DHT22;22718;49.494;7.036;2023-04-03T05:17:21;1.10;99.90
36752;DHT22;22718;49.494;7.036;2023-04-03T05:19:46;1.10;99.90
36752;DHT22;22718;49.494;7.036;2023-04-03T05:22:13;1.20;99.90
36752;DHT22;22718;49.494;7.036;2023-04-03T05:24:38;1.20;99.90
36752;DHT22;22718;49.494;7.036;2023-04-03T05:27:04;1.30;99.90
36752;DHT22;22718;49.494;7.036;2023-04-03T05:29:29;1.30;99.90
36752;DHT22;22718;49.494;7.036;2023-04-03T05:31:55;1.40;99.90
36752;DHT22;22718;49.494;7.036;2023-04-03T05:34:21;1.50;99.90
36752;DHT22;22718;49.494;7.036;2023-04-03T05:37:00;1.60;99.90
36752;DHT22;22718;49.494;7.036;2023-04-03T05:39:25;1.50;99.90
36752;DHT22;22718;49.494;7.036;2023-04-03T05:41:51;1.60;99.90
36752;DHT22;22718;49.494;7.036;2023-04-03T05:44:16;1.60;99.90
36752;DHT22;22718;49.494;7.036;2023-04-03T05:46:42;1.60;99.90
36752;DHT22;22718;49.494;7.036;2023-04-03T05:49:07;1.60;99.90
36752;DHT22;22718;49.494;7.036;2023-04-03T05:51:35;1.80;99.90
36752;DHT22;22718;49.494;7.036;2023-04-03T05:54:06;1.70;99.90
36752;DHT22;22718;49.494;7.036;2023-04-03T05:56:37;1.80;99.90
36752;DHT22;22718;49.494;7.036;2023-04-03T05:59:02;1.90;99.90
36752;DHT22;22718;49.494;7.036;2023-04-03T06:01:32;1.90;99.90
36752;DHT22;22718;49.494;7.036;2023-04-03T06:03:59;2.00;99.90
36752;DHT22;22718;49.494;7.036;2023-04-03T06:06:24;2.10;99.90
36752;DHT22;22718;49.494;7.036;2023-04-03T06:08:50;2.20;99.90
36752;DHT22;22718;49.494;7.036;2023-04-03T06:11:16;2.30;99.90
36752;DHT22;22718;49.494;7.036;2023-04-03T06:13:42;2.20;99.90
36752;DHT22;22718;49.494;7.036;2023-04-03T06:16:09;2.30;99.90
36752;DHT22;22718;49.494;7.036;2023-04-03T06:18:37;2.40;99.90
36752;DHT22;22718;49.494;7.036;2023-04-03T06:21:02;2.50;99.90
36752;DHT22;22718;49.494;7.036;2023-04-03T06:23:28;2.50;99.90
36752;DHT22;22718;49.494;7.036;2023-04-03T06:25:54;2.50;99.90
36752;DHT22;22718;49.494;7.036;2023-04-03T06:28:22;2.60;99.90
36752;DHT22;22718;49.494;7.036;2023-04-03T06:30:48;2.70;99.90
36752;DHT22;22718;49.494;7.036;2023-04-03T06:33:17;2.70;99.90
36752;DHT22;22718;49.494;7.036;2023-04-03T06:35:44;2.70;99.90
36752;DHT22;22718;49.494;7.036;2023-04-03T06:38:11;2.80;99.90
36752;DHT22;22718;49.494;7.036;2023-04-03T06:40:37;2.80;99.90
36752;DHT22;22718;49.494;7.036;2023-04-03T06:43:03;3.00;99.90
36752;DHT22;22718;49.494;7.036;2023-04-03T06:45:29;3.20;99.90
36752;DHT22;22718;49.494;7.036;2023-04-03T06:47:55;3.10;99.90
36752;DHT22;22718;49.494;7.036;2023-04-03T06:50:20;3.40;99.90
36752;DHT22;22718;49.494;7.036;2023-04-03T06:52:46;3.30;99.90
36752;DHT22;22718;49.494;7.036;2023-04-03T06:55:12;3.40;99.90
36752;DHT22;22718;49.494;7.036;2023-04-03T06:57:37;3.40;99.90
36752;DHT22;22718;49.494;7.036;2023-04-03T07:00:03;3.50;99.90
36752;DHT22;22718;49.494;7.036;2023-04-03T07:02:29;3.50;99.90
36752;DHT22;22718;49.494;7.036;2023-04-03T07:04:55;3.70;99.90
36752;DHT22;22718;49.494;7.036;2023-04-03T07:07:20;3.90;99.90
36752;DHT22;22718;49.494;7.036;2023-04-03T07:09:49;4.00;99.90
36752;DHT22;22718;49.494;7.036;2023-04-03T07:12:17;3.90;99.90
36752;DHT22;22718;49.494;7.036;2023-04-03T07:14:42;3.90;99.90
36752;DHT22;22718;49.494;7.036;2023-04-03T07:17:08;3.80;99.90
36752;DHT22;22718;49.494;7.036;2023-04-03T07:19:33;3.90;99.90
36752;DHT22;22718;49.494;7.036;2023-04-03T07:21:59;3.80;99.90
36752;DHT22;22718;49.494;7.036;2023-04-03T07:24:28;3.90;99.90
36752;DHT22;22718;49.494;7.036;2023-04-03T07:26:53;3.70;99.90
36752;DHT22;22718;49.494;7.036;2023-04-03T07:29:19;3.90;99.90
36752;DHT22;22718;49.494;7.036;2023-04-03T07:31:46;4.00;99.90
36752;DHT22;22718;49.494;7.036;2023-04-03T07:34:12;4.30;99.90
36752;DHT22;22718;49.494;7.036;2023-04-03T07:36:38;4.10;99.90
36752;DHT22;22718;49.494;7.036;2023-04-03T07:39:06;4.30;99.90
36752;DHT22;22718;49.494;7.036;2023-04-03T07:41:32;4.20;99.90
36752;DHT22;22718;49.494;7.036;2023-04-03T07:43:58;4.50;99.90
36752;DHT22;22718;49.494;7.036;2023-04-03T07:46:23;4.50;99.90
36752;DHT22;22718;49.494;7.036;2023-04-03T07:48:49;4.50;99.90
36752;DHT22;22718;49.494;7.036;2023-04-03T07:51:15;4.50;99.90
36752;DHT22;22718;49.494;7.036;2023-04-03T07:53:41;4.70;99.90
36752;DHT22;22718;49.494;7.036;2023-04-03T07:56:09;4.80;99.90
36752;DHT22;22718;49.494;7.036;2023-04-03T07:58:35;4.80;99.90
36752;DHT22;22718;49.494;7.036;2023-04-03T08:01:02;4.70;99.90
36752;DHT22;22718;49.494;7.036;2023-04-03T08:03:29;4.90;99.90
36752;DHT22;22718;49.494;7.036;2023-04-03T08:06:00;5.20;99.90
36752;DHT22;22718;49.494;7.036;2023-04-03T08:08:26;5.20;99.90
36752;DHT22;22718;49.494;7.036;2023-04-03T08:10:54;5.30;99.90
36752;DHT22;22718;49.494;7.036;2023-04-03T08:13:20;5.00;99.90
36752;DHT22;22718;49.494;7.036;2023-04-03T08:15:46;5.20;99.90
36752;DHT22;22718;49.494;7.036;2023-04-03T08:18:15;5.50;99.90
36752;DHT22;22718;49.494;7.036;2023-04-03T08:20:41;5.10;99.90
36752;DHT22;22718;49.494;7.036;2023-04-03T08:23:07;5.30;99.90
36752;DHT22;22718;49.494;7.036;2023-04-03T08:25:33;5.10;99.90
36752;DHT22;22718;49.494;7.036;2023-04-03T08:27:59;5.30;99.90
36752;DHT22;22718;49.494;7.036;2023-04-03T08:30:25;5.20;99.90
36752;DHT22;22718;49.494;7.036;2023-04-03T08:32:50;5.40;99.90
36752;DHT22;22718;49.494;7.036;2023-04-03T08:35:16;5.70;99.90
36752;DHT22;22718;49.494;7.036;2023-04-03T08:37:42;5.60;99.90
36752;DHT22;22718;49.494;7.036;2023-04-03T08:40:11;5.70;99.90
36752;DHT22;22718;49.494;7.036;2023-04-03T08:42:41;5.60;99.90
36752;DHT22;22718;49.494;7.036;2023-04-03T08:45:17;5.60;99.90
36752;DHT22;22718;49.494;7.036;2023-04-03T08:47:56;5.70;99.90
36752;DHT22;22718;49.494;7.036;2023-04-03T08:50:31;5.90;99.90
36752;DHT22;22718;49.494;7.036;2023-04-03T08:52:59;5.90;99.90
36752;DHT22;22718;49.494;7.036;2023-04-03T08:55:48;6.00;99.90
36752;DHT22;22718;49.494;7.036;2023-04-03T08:58:15;5.80;99.90
36752;DHT22;22718;49.494;7.036;2023-04-03T09:03:14;5.80;99.90
36752;DHT22;22718;49.494;7.036;2023-04-03T09:08:29;5.80;99.90
36752;DHT22;22718;49.494;7.036;2023-04-03T09:10:58;6.00;99.90
36752;DHT22;22718;49.494;7.036;2023-04-03T09:13:30;6.10;99.90
36752;DHT22;22718;49.494;7.036;2023-04-03T09:15:59;6.10;99.90
36752;DHT22;22718;49.494;7.036;2023-04-03T09:18:30;6.30;99.90
36752;DHT22;22718;49.494;7.036;2023-04-03T09:23:51;6.80;99.90
36752;DHT22;22718;49.494;7.036;2023-04-03T09:26:23;7.70;99.90
36752;DHT22;22718;49.494;7.036;2023-04-03T09:28:51;8.40;99.90
36752;DHT22;22718;49.494;7.036;2023-04-03T09:31:20;9.00;99.90
36752;DHT22;22718;49.494;7.036;2023-04-03T09:33:47;9.30;99.90
36752;DHT22;22718;49.494;7.036;2023-04-03T09:36:37;9.70;99.90
36752;DHT22;22718;49.494;7.036;2023-04-03T09:39:05;10.00;99.90
36752;DHT22;22718;49.494;7.036;2023-04-03T09:41:31;10.40;99.90
36752;DHT22;22718;49.494;7.036;2023-04-03T09:43:58;9.70;99.90
36752;DHT22;22718;49.494;7.036;2023-04-03T09:46:25;9.70;99.90
36752;DHT22;22718;49.494;7.036;2023-04-03T09:48:57;9.20;99.90
36752;DHT22;22718;49.494;7.036;2023-04-03T09:51:27;9.00;99.90
36752;DHT22;22718;49.494;7.036;2023-04-03T09:54:01;8.40;99.90
36752;DHT22;22718;49.494;7.036;2023-04-03T09:56:50;8.00;99.90
36752;DHT22;22718;49.494;7.036;2023-04-03T09:59:16;7.60;99.90
36752;DHT22;22718;49.494;7.036;2023-04-03T10:01:43;7.50;99.90
36752;DHT22;22718;49.494;7.036;2023-04-03T10:04:17;7.10;99.90
36752;DHT22;22718;49.494;7.036;2023-04-03T10:06:44;7.10;99.90
36752;DHT22;22718;49.494;7.036;2023-04-03T10:09:17;6.90;99.90
36752;DHT22;22718;49.494;7.036;2023-04-03T10:14:25;7.10;99.90
36752;DHT22;22718;49.494;7.036;2023-04-03T10:16:55;7.50;99.90
36752;DHT22;22718;49.494;7.036;2023-04-03T10:29:51;7.40;99.90
36752;DHT22;22718;49.494;7.036;2023-04-03T10:34:45;7.10;99.90
36752;DHT22;22718;49.494;7.036;2023-04-03T10:39:49;7.00;99.90
36752;DHT22;22718;49.494;7.036;2023-04-03T10:45:06;7.00;99.90
36752;DHT22;22718;49.494;7.036;2023-04-03T10:47:51;7.20;99.90
36752;DHT22;22718;49.494;7.036;2023-04-03T10:58:51;6.80;99.90
36752;DHT22;22718;49.494;7.036;2023-04-03T11:01:20;6.90;99.90
36752;DHT22;22718;49.494;7.036;2023-04-03T11:03:49;7.10;99.90
36752;DHT22;22718;49.494;7.036;2023-04-03T11:06:16;7.20;99.90
36752;DHT22;22718;49.494;7.036;2023-04-03T11:09:02;7.30;99.90
36752;DHT22;22718;49.494;7.036;2023-04-03T11:11:33;7.50;99.90
36752;DHT22;22718;49.494;7.036;2023-04-03T11:16:27;8.30;99.90
36752;DHT22;22718;49.494;7.036;2023-04-03T11:18:59;8.30;99.90
36752;DHT22;22718;49.494;7.036;2023-04-03T11:21:29;7.90;99.90
36752;DHT22;22718;49.494;7.036;2023-04-03T11:23:57;7.70;99.90
36752;DHT22;22718;49.494;7.036;2023-04-03T11:26:24;7.60;99.90
36752;DHT22;22718;49.494;7.036;2023-04-03T11:28:59;7.60;99.90
36752;DHT22;22718;49.494;7.036;2023-04-03T11:38:44;7.00;99.90
36752;DHT22;22718;49.494;7.036;2023-04-03T11:41:11;7.30;99.90
36752;DHT22;22718;49.494;7.036;2023-04-03T11:43:42;7.50;99.90
36752;DHT22;22718;49.494;7.036;2023-04-03T11:46:08;7.00;99.90
36752;DHT22;22718;49.494;7.036;2023-04-03T11:55:57;6.50;99.90
36752;DHT22;22718;49.494;7.036;2023-04-03T12:13:39;8.10;99.90
36752;DHT22;22718;49.494;7.036;2023-04-03T12:16:06;8.20;99.90
36752;DHT22;22718;49.494;7.036;2023-04-03T12:18:53;8.30;99.90
36752;DHT22;22718;49.494;7.036;2023-04-03T12:26:38;8.10;99.90
36752;DHT22;22718;49.494;7.036;2023-04-03T12:29:21;8.40;99.90
36752;DHT22;22718;49.494;7.036;2023-04-03T12:36:59;8.00;99.90
36752;DHT22;22718;49.494;7.036;2023-04-03T12:47:43;8.30;99.90
36752;DHT22;22718;49.494;7.036;2023-04-03T12:52:45;8.60;99.90
36752;DHT22;22718;49.494;7.036;2023-04-03T12:55:15;8.70;99.90
36752;DHT22;22718;49.494;7.036;2023-04-03T12:57:42;8.90;99.90
36752;DHT22;22718;49.494;7.036;2023-04-03T13:00:22;8.60;99.90
36752;DHT22;22718;49.494;7.036;2023-04-03T13:02:51;8.40;99.90
36752;DHT22;22718;49.494;7.036;2023-04-03T13:05:28;8.50;99.90
36752;DHT22;22718;49.494;7.036;2023-04-03T13:07:57;8.30;99.90
36752;DHT22;22718;49.494;7.036;2023-04-03T13:10:25;8.60;99.90
36752;DHT22;22718;49.494;7.036;2023-04-03T13:12:54;8.60;99.90
36752;DHT22;22718;49.494;7.036;2023-04-03T13:17:45;8.70;99.90
36752;DHT22;22718;49.494;7.036;2023-04-03T13:20:21;8.40;99.90
36752;DHT22;22718;49.494;7.036;2023-04-03T13:22:49;8.30;99.90
36752;DHT22;22718;49.494;7.036;2023-04-03T13:25:16;7.90;99.90
36752;DHT22;22718;49.494;7.036;2023-04-03T13:27:43;8.00;99.90
36752;DHT22;22718;49.494;7.036;2023-04-03T13:32:54;8.10;99.90
36752;DHT22;22718;49.494;7.036;2023-04-03T13:35:32;8.40;99.90
36752;DHT22;22718;49.494;7.036;2023-04-03T13:38:21;8.50;99.90
36752;DHT22;22718;49.494;7.036;2023-04-03T13:40:49;8.40;99.90
36752;DHT22;22718;49.494;7.036;2023-04-03T13:43:34;8.10;99.90
36752;DHT22;22718;49.494;7.036;2023-04-03T13:51:12;7.10;99.90
36752;DHT22;22718;49.494;7.036;2023-04-03T13:53:48;7.20;99.90
36752;DHT22;22718;49.494;7.036;2023-04-03T13:56:17;7.30;99.90
36752;DHT22;22718;49.494;7.036;2023-04-03T13:58:52;7.70;99.90
36752;DHT22;22718;49.494;7.036;2023-04-03T14:01:19;7.90;99.90
36752;DHT22;22718;49.494;7.036;2023-04-03T14:03:46;8.10;99.90
36752;DHT22;22718;49.494;7.036;2023-04-03T14:06:13;8.00;99.90
36752;DHT22;22718;49.494;7.036;2023-04-03T14:08:39;8.40;99.90
36752;DHT22;22718;49.494;7.036;2023-04-03T14:11:11;8.50;99.90
36752;DHT22;22718;49.494;7.036;2023-04-03T14:13:38;8.00;99.90
36752;DHT22;22718;49.494;7.036;2023-04-03T14:16:04;7.60;99.90
36752;DHT22;22718;49.494;7.036;2023-04-03T14:18:32;7.50;99.90
36752;DHT22;22718;49.494;7.036;2023-04-03T14:20:58;7.20;99.90
36752;DHT22;22718;49.494;7.036;2023-04-03T14:23:24;7.00;99.90
36752;DHT22;22718;49.494;7.036;2023-04-03T14:25:50;6.80;99.90
36752;DHT22;22718;49.494;7.036;2023-04-03T14:28:17;7.00;99.90
36752;DHT22;22718;49.494;7.036;2023-04-03T14:30:45;7.20;99.90
36752;DHT22;22718;49.494;7.036;2023-04-03T14:33:13;7.30;99.90
36752;DHT22;22718;49.494;7.036;2023-04-03T14:35:39;7.80;99.90
36752;DHT22;22718;49.494;7.036;2023-04-03T14:38:09;7.90;99.90
36752;DHT22;22718;49.494;7.036;2023-04-03T14:40:37;7.90;99.90
36752;DHT22;22718;49.494;7.036;2023-04-03T14:43:03;7.60;99.90
36752;DHT22;22718;49.494;7.036;2023-04-03T14:45:28;7.30;99.90
36752;DHT22;22718;49.494;7.036;2023-04-03T14:47:55;7.00;99.90
36752;DHT22;22718;49.494;7.036;2023-04-03T14:50:22;6.90;99.90
36752;DHT22;22718;49.494;7.036;2023-04-03T14:52:48;6.90;99.90
36752;DHT22;22718;49.494;7.036;2023-04-03T14:55:15;7.20;99.90
36752;DHT22;22718;49.494;7.036;2023-04-03T14:57:41;7.40;99.90
36752;DHT22;22718;49.494;7.036;2023-04-03T15:00:07;7.50;99.90
36752;DHT22;22718;49.494;7.036;2023-04-03T15:02:34;7.50;99.90
36752;DHT22;22718;49.494;7.036;2023-04-03T15:05:01;7.50;99.90
36752;DHT22;22718;49.494;7.036;2023-04-03T15:07:28;7.20;99.90
36752;DHT22;22718;49.494;7.036;2023-04-03T15:09:54;7.30;99.90
36752;DHT22;22718;49.494;7.036;2023-04-03T15:12:22;7.50;99.90
36752;DHT22;22718;49.494;7.036;2023-04-03T15:14:49;7.70;99.90
36752;DHT22;22718;49.494;7.036;2023-04-03T15:17:15;7.60;99.90
36752;DHT22;22718;49.494;7.036;2023-04-03T15:19:42;7.50;99.90
36752;DHT22;22718;49.494;7.036;2023-04-03T15:22:17;7.10;99.90
36752;DHT22;22718;49.494;7.036;2023-04-03T15:24:44;6.80;99.90
36752;DHT22;22718;49.494;7.036;2023-04-03T15:27:10;7.00;99.90
36752;DHT22;22718;49.494;7.036;2023-04-03T15:29:36;7.20;99.90
36752;DHT22;22718;49.494;7.036;2023-04-03T15:32:02;7.50;99.90
36752;DHT22;22718;49.494;7.036;2023-04-03T15:34:27;7.40;99.90
36752;DHT22;22718;49.494;7.036;2023-04-03T15:36:55;7.10;99.90
36752;DHT22;22718;49.494;7.036;2023-04-03T15:39:20;7.00;99.90
36752;DHT22;22718;49.494;7.036;2023-04-03T15:41:46;6.90;99.90
36752;DHT22;22718;49.494;7.036;2023-04-03T15:44:12;6.50;99.90
36752;DHT22;22718;49.494;7.036;2023-04-03T15:46:38;6.70;99.90
36752;DHT22;22718;49.494;7.036;2023-04-03T15:49:04;6.70;99.90
36752;DHT22;22718;49.494;7.036;2023-04-03T15:51:29;6.80;99.90
36752;DHT22;22718;49.494;7.036;2023-04-03T15:53:55;6.70;99.90
36752;DHT22;22718;49.494;7.036;2023-04-03T15:56:21;6.60;99.90
36752;DHT22;22718;49.494;7.036;2023-04-03T15:58:46;6.50;99.90
36752;DHT22;22718;49.494;7.036;2023-04-03T16:01:12;6.40;99.90
36752;DHT22;22718;49.494;7.036;2023-04-03T16:03:38;6.30;99.90
36752;DHT22;22718;49.494;7.036;2023-04-03T16:06:16;6.40;99.90
36752;DHT22;22718;49.494;7.036;2023-04-03T16:08:43;6.40;99.90
36752;DHT22;22718;49.494;7.036;2023-04-03T16:11:12;6.40;99.90
36752;DHT22;22718;49.494;7.036;2023-04-03T16:13:38;6.10;99.90
36752;DHT22;22718;49.494;7.036;2023-04-03T16:16:03;5.90;99.90
36752;DHT22;22718;49.494;7.036;2023-04-03T16:18:29;5.80;99.90
36752;DHT22;22718;49.494;7.036;2023-04-03T16:20:56;5.80;99.90
36752;DHT22;22718;49.494;7.036;2023-04-03T16:23:21;5.70;99.90
36752;DHT22;22718;49.494;7.036;2023-04-03T16:25:57;5.60;99.90
36752;DHT22;22718;49.494;7.036;2023-04-03T16:28:23;5.60;99.90
36752;DHT22;22718;49.494;7.036;2023-04-03T16:30:49;5.60;99.90
36752;DHT22;22718;49.494;7.036;2023-04-03T16:33:15;5.60;99.90
36752;DHT22;22718;49.494;7.036;2023-04-03T16:35:41;5.60;99.90
36752;DHT22;22718;49.494;7.036;2023-04-03T16:38:09;5.50;99.90
36752;DHT22;22718;49.494;7.036;2023-04-03T16:40:35;5.60;99.90
36752;DHT22;22718;49.494;7.036;2023-04-03T16:43:01;5.50;99.90
36752;DHT22;22718;49.494;7.036;2023-04-03T16:45:29;5.50;99.90
36752;DHT22;22718;49.494;7.036;2023-04-03T16:47:55;5.50;99.90
36752;DHT22;22718;49.494;7.036;2023-04-03T16:50:21;5.50;99.90
36752;DHT22;22718;49.494;7.036;2023-04-03T16:52:46;5.50;99.90
36752;DHT22;22718;49.494;7.036;2023-04-03T16:55:12;5.50;99.90
36752;DHT22;22718;49.494;7.036;2023-04-03T16:57:37;5.50;99.90
36752;DHT22;22718;49.494;7.036;2023-04-03T17:00:03;5.40;99.90
36752;DHT22;22718;49.494;7.036;2023-04-03T17:02:29;5.30;99.90
36752;DHT22;22718;49.494;7.036;2023-04-03T17:05:02;5.30;99.90
36752;DHT22;22718;49.494;7.036;2023-04-03T17:07:28;5.30;99.90
36752;DHT22;22718;49.494;7.036;2023-04-03T17:09:56;5.30;99.90
36752;DHT22;22718;49.494;7.036;2023-04-03T17:14:51;5.10;99.90
36752;DHT22;22718;49.494;7.036;2023-04-03T17:17:20;5.10;99.90
36752;DHT22;22718;49.494;7.036;2023-04-03T17:19:46;5.10;99.90
36752;DHT22;22718;49.494;7.036;2023-04-03T17:22:12;5.00;99.90
36752;DHT22;22718;49.494;7.036;2023-04-03T17:24:38;5.10;99.90
36752;DHT22;22718;49.494;7.036;2023-04-03T17:27:05;5.10;99.90
36752;DHT22;22718;49.494;7.036;2023-04-03T17:29:30;5.00;99.90
36752;DHT22;22718;49.494;7.036;2023-04-03T17:31:59;5.00;99.90
36752;DHT22;22718;49.494;7.036;2023-04-03T17:34:26;4.90;99.90
36752;DHT22;22718;49.494;7.036;2023-04-03T17:36:51;4.90;99.90